Time;durP1;ratioP1;P1;durP2;ratioP2;P2;SDS_P1;SDS_P2;PMS_P1;PMS_P2;Temp;Humidity;BMP_temperature;BMP_pressure;BME280_temperature;BME280_humidity;BME280_pressure;Samples;Min_cycle;Max_cycle;Signal;HPM_P1;HPM_P2
2023/10/30 00:00:48;;;;;;;2.40;0.80;;;;;;;12.90;46.61;99608.72;5011860;28;20409;-87
2023/10/30 00:03:16;;;;;;;3.50;1.02;;;;;;;12.89;46.43;99599.63;5007300;28;20046;-88
2023/10/30 00:05:46;;;;;;;4.40;1.35;;;;;;;12.90;46.03;99612.31;4991459;28;20053;-88
2023/10/30 00:08:14;;;;;;;3.13;0.90;;;;;;;12.88;46.42;99604.25;4989610;28;20626;-88
2023/10/30 00:10:42;;;;;;;3.75;1.35;;;;;;;12.88;46.23;99617.13;5007693;28;20069;-87
2023/10/30 00:13:10;;;;;;;4.32;1.20;;;;;;;12.90;46.65;99630.69;4987250;28;20189;-87
2023/10/30 00:15:38;;;;;;;3.00;1.08;;;;;;;12.88;46.62;99623.50;4988722;28;20516;-86
2023/10/30 00:18:06;;;;;;;3.33;0.90;;;;;;;12.88;46.41;99622.63;5006592;28;20051;-87
2023/10/30 00:20:37;;;;;;;3.30;1.25;;;;;;;12.90;46.53;99631.56;5009217;28;20045;-86
2023/10/30 00:23:06;;;;;;;3.38;0.88;;;;;;;12.88;46.27;99634.47;5007080;28;20061;-86
2023/10/30 00:25:34;;;;;;;2.72;1.10;;;;;;;12.86;46.31;99632.97;5008458;28;20051;-85
2023/10/30 00:28:02;;;;;;;3.95;1.15;;;;;;;12.84;46.37;99652.34;4994009;28;20113;-88
2023/10/30 00:30:30;;;;;;;4.50;1.38;;;;;;;12.83;46.56;99650.63;5005795;28;20055;-86
2023/10/30 00:32:58;;;;;;;3.67;1.27;;;;;;;12.83;46.24;99658.88;5012213;28;21289;-88
2023/10/30 00:35:26;;;;;;;2.92;1.02;;;;;;;12.83;46.57;99658.03;4992226;28;20050;-85
2023/10/30 00:37:54;;;;;;;3.35;0.85;;;;;;;12.80;46.59;99661.09;5016167;28;20057;-89
2023/10/30 00:40:26;;;;;;;3.70;1.10;;;;;;;12.82;46.69;99665.41;5017703;28;20571;-86
2023/10/30 00:42:54;;;;;;;4.97;1.30;;;;;;;12.80;47.04;99667.47;5015061;28;20291;-89
2023/10/30 00:45:22;;;;;;;2.92;0.90;;;;;;;12.81;46.59;99668.31;5020378;28;20110;-88
2023/10/30 00:47:50;;;;;;;3.63;1.40;;;;;;;12.81;46.78;99666.44;4998401;28;20058;-85
2023/10/30 00:50:18;;;;;;;4.00;1.20;;;;;;;12.79;46.91;99673.13;5003617;28;20052;-84
2023/10/30 00:52:47;;;;;;;4.55;1.33;;;;;;;12.78;46.98;99680.53;5006578;28;20064;-85
2023/10/30 00:55:17;;;;;;;4.40;1.35;;;;;;;12.79;46.87;99684.97;5005882;28;20814;-85
2023/10/30 00:57:47;;;;;;;3.60;1.13;;;;;;;12.79;46.44;99684.09;5003464;28;20107;-83
2023/10/30 01:00:16;;;;;;;3.47;1.20;;;;;;;12.79;46.53;99678.63;4995630;28;20050;-82
2023/10/30 01:02:45;;;;;;;3.45;1.10;;;;;;;12.77;46.72;99686.19;4995006;28;20064;-84
2023/10/30 01:05:13;;;;;;;3.75;1.23;;;;;;;12.76;46.82;99684.47;5007813;28;20141;-83
2023/10/30 01:07:41;;;;;;;2.95;0.90;;;;;;;12.76;46.96;99692.72;4993157;28;21275;-84
2023/10/30 01:10:10;;;;;;;3.30;1.08;;;;;;;12.74;46.50;99681.91;4995949;28;20125;-84
2023/10/30 01:12:38;;;;;;;4.47;1.30;;;;;;;12.75;47.04;99691.00;4992465;28;20164;-83
2023/10/30 01:15:09;;;;;;;3.15;1.00;;;;;;;12.75;46.89;99686.38;4977836;28;20054;-84
2023/10/30 01:17:37;;;;;;;2.88;1.10;;;;;;;12.74;46.70;99694.78;4979681;28;20254;-85
2023/10/30 01:20:06;;;;;;;4.80;1.48;;;;;;;12.74;46.70;99678.31;4977803;28;20085;-84
2023/10/30 01:22:35;;;;;;;3.55;1.33;;;;;;;12.72;46.99;99689.44;4993334;28;20050;-85
2023/10/30 01:25:03;;;;;;;3.60;1.10;;;;;;;12.73;47.22;99671.94;4989122;28;20054;-84
2023/10/30 01:27:31;;;;;;;5.07;1.17;;;;;;;12.73;46.81;99682.06;4991959;28;20054;-83
2023/10/30 01:29:59;;;;;;;4.15;1.30;;;;;;;12.73;47.24;99666.47;4977946;28;20050;-84
2023/10/30 01:32:28;;;;;;;2.45;0.95;;;;;;;12.74;47.34;99675.56;4974567;28;20785;-83
2023/10/30 01:34:56;;;;;;;4.65;1.25;;;;;;;12.71;47.03;99663.03;4994210;28;20112;-84
2023/10/30 01:37:24;;;;;;;4.28;1.17;;;;;;;12.72;47.25;99678.47;4980311;28;20514;-83
2023/10/30 01:39:54;;;;;;;4.15;1.13;;;;;;;12.72;47.23;99678.47;4997319;28;20050;-85
2023/10/30 01:42:22;;;;;;;4.35;1.30;;;;;;;12.73;47.04;99676.59;4992601;28;20057;-83
2023/10/30 01:44:55;;;;;;;3.45;1.17;;;;;;;12.75;47.26;99677.28;4976857;28;20054;-83
2023/10/30 01:47:23;;;;;;;3.55;1.20;;;;;;;12.71;47.22;99689.63;4976099;28;20046;-84
2023/10/30 01:49:53;;;;;;;4.05;1.40;;;;;;;12.75;47.27;99680.00;4991833;28;20137;-84
2023/10/30 01:52:24;;;;;;;3.90;1.10;;;;;;;12.75;47.56;99691.00;4994283;28;20057;-83
2023/10/30 01:54:54;;;;;;;4.60;1.20;;;;;;;12.72;47.30;99683.97;4977988;28;20391;-83
2023/10/30 01:57:23;;;;;;;5.00;0.90;;;;;;;12.74;47.34;99687.38;4975089;28;20050;-83
2023/10/30 01:59:52;;;;;;;4.32;1.40;;;;;;;12.72;47.30;99681.22;4976041;28;20181;-85
2023/10/30 02:02:21;;;;;;;5.55;1.35;;;;;;;12.74;47.61;99700.25;4994013;28;20165;-84
2023/10/30 02:04:50;;;;;;;6.20;1.25;;;;;;;12.72;47.36;99708.66;4976645;28;20064;-83
2023/10/30 02:07:19;;;;;;;3.40;1.20;;;;;;;12.73;47.56;99709.53;4973041;28;20094;-83
2023/10/30 02:09:48;;;;;;;3.33;1.10;;;;;;;12.72;47.38;99708.66;4975941;28;20133;-85
2023/10/30 02:12:17;;;;;;;4.80;1.20;;;;;;;12.69;47.64;99706.28;4995783;28;20044;-85
2023/10/30 02:14:47;;;;;;;4.95;1.30;;;;;;;12.68;47.52;99704.56;4988851;28;20059;-85
2023/10/30 02:17:15;;;;;;;2.83;0.90;;;;;;;12.69;46.98;99706.28;4976155;28;20475;-84
2023/10/30 02:19:43;;;;;;;3.38;1.00;;;;;;;12.69;47.56;99708.19;5003270;28;20161;-82
2023/10/30 02:22:11;;;;;;;3.65;1.05;;;;;;;12.69;47.75;99711.78;5008061;28;20065;-82
2023/10/30 02:24:40;;;;;;;4.43;1.10;;;;;;;12.69;47.49;99706.28;4991427;28;20145;-83
2023/10/30 02:27:10;;;;;;;3.55;1.00;;;;;;;12.70;47.24;99708.00;4991754;28;20616;-84
2023/10/30 02:29:40;;;;;;;3.22;1.10;;;;;;;12.68;47.84;99712.81;4990818;28;20142;-85
2023/10/30 02:32:08;;;;;;;4.95;1.58;;;;;;;12.66;47.38;99703.88;4973443;28;20687;-83
2023/10/30 02:34:36;;;;;;;4.03;1.00;;;;;;;12.66;47.82;99698.41;4974959;28;20653;-85
2023/10/30 02:37:05;;;;;;;3.88;1.50;;;;;;;12.67;47.54;99707.50;5006750;28;20058;-83
2023/10/30 02:39:34;;;;;;;4.55;1.20;;;;;;;12.67;47.92;99699.25;4991581;28;20718;-83
2023/10/30 02:42:04;;;;;;;2.72;1.20;;;;;;;12.67;47.68;99705.59;4989897;28;20077;-83
2023/10/30 02:44:34;;;;;;;4.75;1.20;;;;;;;12.67;47.47;99704.75;4990620;28;20050;-83
2023/10/30 02:47:02;;;;;;;3.90;1.02;;;;;;;12.66;47.92;99703.88;4993085;28;20047;-83
2023/10/30 02:49:30;;;;;;;3.83;1.15;;;;;;;12.66;47.56;99708.53;4988921;28;20050;-84
2023/10/30 02:51:59;;;;;;;4.97;1.00;;;;;;;12.65;48.14;99706.81;4992320;28;20429;-83
2023/10/30 02:54:28;;;;;;;3.10;1.00;;;;;;;12.66;47.82;99698.41;4993706;28;20082;-83
2023/10/30 02:56:56;;;;;;;3.22;1.08;;;;;;;12.64;47.61;99697.72;4976482;28;20189;-85
2023/10/30 02:59:24;;;;;;;3.63;1.08;;;;;;;12.65;47.96;99704.91;4973460;28;20129;-84
2023/10/30 03:01:53;;;;;;;3.20;1.00;;;;;;;12.64;47.61;99696.84;4992534;28;20402;-84
2023/10/30 03:04:24;;;;;;;4.68;1.45;;;;;;;12.64;47.90;99702.34;4972485;28;20445;-83
2023/10/30 03:06:52;;;;;;;3.50;1.13;;;;;;;12.65;47.52;99690.34;4974365;28;20052;-84
2023/10/30 03:09:20;;;;;;;4.35;1.15;;;;;;;12.62;47.58;99688.81;4971505;28;20054;-84
2023/10/30 03:11:48;;;;;;;4.00;1.20;;;;;;;12.62;47.46;99683.34;4991770;28;20744;-84
2023/10/30 03:14:16;;;;;;;5.15;1.20;;;;;;;12.62;47.61;99685.22;4978775;28;20600;-85
2023/10/30 03:16:44;;;;;;;2.92;1.10;;;;;;;12.61;48.02;99681.59;4973141;28;21454;-84
2023/10/30 03:19:14;;;;;;;3.10;1.10;;;;;;;12.61;47.89;99681.59;4988528;28;20674;-85
2023/10/30 03:21:43;;;;;;;3.20;1.50;;;;;;;12.61;48.07;99684.31;4973396;28;20053;-83
2023/10/30 03:24:14;;;;;;;2.83;0.90;;;;;;;12.58;48.08;99684.66;4976953;28;20128;-83
2023/10/30 03:26:42;;;;;;;3.83;1.30;;;;;;;12.60;48.05;99679.00;4969683;28;20069;-82
2023/10/30 03:29:10;;;;;;;4.18;1.20;;;;;;;12.59;47.69;99680.91;4986041;28;20062;-84
2023/10/30 03:31:40;;;;;;;4.07;1.13;;;;;;;12.60;47.84;99681.75;4973182;28;21523;-84
2023/10/30 03:34:08;;;;;;;3.33;0.95;;;;;;;12.60;47.96;99681.75;4988269;28;20162;-84
2023/10/30 03:36:38;;;;;;;2.58;1.02;;;;;;;12.61;47.79;99676.09;4989896;28;20104;-84
2023/10/30 03:39:06;;;;;;;3.05;1.08;;;;;;;12.58;47.84;99675.56;4970625;28;20630;-84
2023/10/30 03:41:34;;;;;;;5.68;1.30;;;;;;;12.60;47.84;99690.00;4989904;28;20073;-83
2023/10/30 03:44:02;;;;;;;4.40;1.40;;;;;;;12.58;47.78;99684.66;4990330;28;20054;-83
2023/10/30 03:46:32;;;;;;;3.80;1.45;;;;;;;12.58;48.10;99690.16;4990138;28;20047;-84
2023/10/30 03:49:00;;;;;;;2.95;1.10;;;;;;;12.56;47.74;99686.72;4973943;28;20054;-83
2023/10/30 03:51:28;;;;;;;4.25;1.27;;;;;;;12.58;47.71;99698.38;4978769;28;20712;-85
2023/10/30 03:53:58;;;;;;;3.67;1.20;;;;;;;12.59;48.10;99688.28;4994121;28;20902;-85
2023/10/30 03:56:26;;;;;;;2.83;0.95;;;;;;;12.57;47.74;99690.31;4993679;28;20054;-83
2023/10/30 03:58:54;;;;;;;4.20;1.00;;;;;;;12.57;47.92;99698.56;4993506;28;20424;-83
2023/10/30 04:01:22;;;;;;;4.90;1.30;;;;;;;12.56;47.74;99699.59;4995247;28;20054;-83
2023/10/30 04:03:51;;;;;;;2.90;1.10;;;;;;;12.55;47.98;99700.63;4979200;28;20133;-84
2023/10/30 04:06:20;;;;;;;4.38;1.25;;;;;;;12.55;47.75;99701.47;4995305;28;20054;-83
2023/10/30 04:08:48;;;;;;;4.07;1.10;;;;;;;12.55;48.12;99715.19;4979793;28;20200;-85
2023/10/30 04:11:18;;;;;;;4.05;1.10;;;;;;;12.55;48.01;99709.72;4995374;28;20484;-84
2023/10/30 04:13:46;;;;;;;2.83;1.20;;;;;;;12.54;48.14;99713.50;4999463;28;20046;-82
2023/10/30 04:16:16;;;;;;;2.35;0.95;;;;;;;12.55;48.40;99712.44;4996319;28;20050;-82
2023/10/30 04:18:45;;;;;;;5.10;1.20;;;;;;;12.54;48.04;99707.16;4996009;28;20046;-82
2023/10/30 04:21:13;;;;;;;2.92;0.98;;;;;;;12.55;48.38;99709.72;5003995;28;20104;-83
2023/10/30 04:23:42;;;;;;;3.55;1.10;;;;;;;12.54;48.40;99694.31;4992882;28;20141;-84
2023/10/30 04:26:10;;;;;;;4.30;1.00;;;;;;;12.52;48.22;99699.09;4979507;28;20046;-83
2023/10/30 04:28:40;;;;;;;3.28;0.93;;;;;;;12.56;48.04;99694.09;4979092;28;20523;-84
2023/10/30 04:31:09;;;;;;;4.32;1.48;;;;;;;12.53;48.33;99692.59;4979354;28;20058;-84
2023/10/30 04:33:36;;;;;;;4.60;1.10;;;;;;;12.56;48.48;99699.59;4979818;28;20054;-82
2023/10/30 04:36:05;;;;;;;2.25;1.00;;;;;;;12.56;48.33;99694.09;4984289;28;20050;-83
2023/10/30 04:38:34;;;;;;;2.92;1.10;;;;;;;12.56;48.34;99694.09;4996550;28;20058;-83
2023/10/30 04:41:04;;;;;;;2.85;1.08;;;;;;;12.56;48.12;99689.47;4976184;28;20055;-84
2023/10/30 04:43:33;;;;;;;3.60;1.00;;;;;;;12.56;48.31;99692.22;4980034;28;20237;-85
2023/10/30 04:46:04;;;;;;;5.32;1.30;;;;;;;12.59;48.20;99691.00;4993238;28;20069;-83
2023/10/30 04:48:33;;;;;;;4.95;1.42;;;;;;;12.55;48.22;99698.72;5010781;28;20599;-82
2023/10/30 04:51:01;;;;;;;2.78;1.10;;;;;;;12.58;48.23;99690.16;5005498;28;20152;-83
2023/10/30 04:53:30;;;;;;;3.63;1.10;;;;;;;12.57;48.76;99691.19;4987132;28;20042;-82
2023/10/30 04:55:59;;;;;;;6.78;1.40;;;;;;;12.56;48.39;99689.47;4987204;28;20047;-82
2023/10/30 04:58:27;;;;;;;3.83;1.35;;;;;;;12.57;48.30;99693.94;4984968;28;20085;-81
2023/10/30 05:00:55;;;;;;;3.38;1.00;;;;;;;12.58;48.68;99701.13;4979980;28;20046;-83
2023/10/30 05:03:25;;;;;;;3.75;1.33;;;;;;;12.60;48.29;99703.72;4980388;28;20050;-82
2023/10/30 05:05:53;;;;;;;5.53;1.30;;;;;;;12.57;48.52;99704.06;4980359;28;20046;-84
2023/10/30 05:08:21;;;;;;;5.85;1.55;;;;;;;12.56;48.68;99702.34;4981277;28;20062;-84
2023/10/30 05:10:49;;;;;;;3.70;1.20;;;;;;;12.57;48.33;99715.88;4976676;28;20747;-84
2023/10/30 05:13:17;;;;;;;3.80;1.45;;;;;;;12.57;48.38;99712.28;4978684;28;20069;-84
2023/10/30 05:15:45;;;;;;;4.43;1.20;;;;;;;12.58;48.52;99711.25;4994360;28;20051;-85
2023/10/30 05:18:14;;;;;;;4.65;1.50;;;;;;;12.56;48.83;99705.94;4994648;28;20899;-82
2023/10/30 05:20:43;;;;;;;4.38;1.45;;;;;;;12.57;48.62;99710.41;4975696;28;20058;-83
2023/10/30 05:23:11;;;;;;;5.18;1.50;;;;;;;12.55;48.34;99708.84;4994060;28;20549;-83
2023/10/30 05:25:39;;;;;;;4.85;1.55;;;;;;;12.54;48.31;99716.25;4994281;28;20119;-83
2023/10/30 05:28:10;;;;;;;4.35;1.50;;;;;;;12.54;48.83;99723.63;4978139;28;20608;-84
2023/10/30 05:30:38;;;;;;;4.70;1.38;;;;;;;12.54;48.59;99720.88;4992367;28;20046;-82
2023/10/30 05:33:09;;;;;;;3.20;1.67;;;;;;;12.53;48.75;99721.91;4979631;28;20522;-84
2023/10/30 05:35:37;;;;;;;3.50;1.23;;;;;;;12.48;48.83;99712.31;4983499;28;20731;-85
2023/10/30 05:38:07;;;;;;;4.15;1.27;;;;;;;12.50;48.56;99720.38;4997464;28;20772;-84
2023/10/30 05:40:35;;;;;;;2.55;1.00;;;;;;;12.49;48.65;99715.91;4981189;28;20430;-85
2023/10/30 05:43:03;;;;;;;3.63;1.33;;;;;;;12.48;48.35;99703.22;4981746;28;20050;-82
2023/10/30 05:45:31;;;;;;;3.25;1.40;;;;;;;12.47;48.84;99707.84;4997549;28;20058;-83
2023/10/30 05:47:59;;;;;;;2.70;1.33;;;;;;;12.49;48.52;99707.66;4983177;28;20054;-83
2023/10/30 05:50:27;;;;;;;3.90;1.30;;;;;;;12.45;48.88;99709.06;4999810;28;20058;-83
2023/10/30 05:52:55;;;;;;;3.60;0.93;;;;;;;12.46;48.83;99699.78;4997770;28;20050;-81
2023/10/30 05:55:25;;;;;;;3.45;1.27;;;;;;;12.48;48.69;99714.19;5013896;28;20068;-83
2023/10/30 05:57:53;;;;;;;3.95;1.60;;;;;;;12.45;48.64;99707.19;4988611;28;20077;-84
2023/10/30 06:00:22;;;;;;;2.70;1.23;;;;;;;12.44;48.42;99705.47;4980748;28;20573;-84
2023/10/30 06:02:51;;;;;;;4.03;1.52;;;;;;;12.46;48.60;99708.00;4984412;28;20061;-83
2023/10/30 06:05:19;;;;;;;5.00;1.30;;;;;;;12.45;48.43;99709.94;4980823;28;20078;-84
2023/10/30 06:07:47;;;;;;;4.05;1.40;;;;;;;12.45;48.73;99701.69;4996871;28;20054;-83
2023/10/30 06:10:19;;;;;;;6.45;1.75;;;;;;;12.44;48.67;99705.47;4997894;28;20108;-84
2023/10/30 06:12:48;;;;;;;4.15;1.52;;;;;;;12.42;48.86;99699.28;5003108;28;20034;-82
2023/10/30 06:15:17;;;;;;;2.83;1.30;;;;;;;12.45;48.78;99700.84;4996726;28;20046;-82
2023/10/30 06:17:45;;;;;;;4.80;1.55;;;;;;;12.45;48.58;99698.09;4986701;28;20058;-84
2023/10/30 06:20:13;;;;;;;4.47;1.77;;;;;;;12.45;48.91;99712.66;4962460;28;20047;-83
2023/10/30 06:22:40;;;;;;;3.00;1.30;;;;;;;12.43;49.04;99701.00;4962802;28;20074;-83
2023/10/30 06:25:09;;;;;;;3.55;1.40;;;;;;;12.43;48.78;99698.25;4977678;28;20413;-83
2023/10/30 06:27:40;;;;;;;5.80;1.50;;;;;;;12.45;48.45;99698.09;4978130;28;20043;-84
2023/10/30 06:30:13;;;;;;;4.28;1.58;;;;;;;12.46;48.69;99697.88;4978089;28;20252;-83
2023/10/30 06:32:42;;;;;;;4.70;1.40;;;;;;;12.44;48.75;99697.22;4962191;28;20700;-83
2023/10/30 06:35:10;;;;;;;5.03;1.50;;;;;;;12.44;48.63;99697.22;4960538;28;20054;-83
2023/10/30 06:37:38;;;;;;;4.38;1.48;;;;;;;12.43;48.80;99702.88;4977844;28;20046;-84
2023/10/30 06:40:08;;;;;;;3.90;1.30;;;;;;;12.43;48.52;99701.00;4961919;28;20062;-84
2023/10/30 06:42:36;;;;;;;4.85;1.75;;;;;;;12.42;48.69;99704.78;4977676;28;22075;-83
2023/10/30 06:45:04;;;;;;;4.60;1.65;;;;;;;12.42;49.20;99706.66;4961456;28;20050;-83
2023/10/30 06:47:34;;;;;;;4.70;1.35;;;;;;;12.42;49.13;99702.03;4976415;28;20442;-83
2023/10/30 06:50:02;;;;;;;2.13;1.20;;;;;;;12.40;49.00;99706.81;4961631;28;20054;-83
2023/10/30 06:52:30;;;;;;;5.35;1.20;;;;;;;12.40;49.42;99703.22;4978315;28;20047;-84
2023/10/30 06:55:10;;;;;;;5.18;1.67;;;;;;;12.39;49.11;99705.09;4959546;28;20132;-84
2023/10/30 06:57:41;;;;;;;4.90;1.48;;;;;;;12.39;49.18;99707.84;4993247;28;20409;-84
2023/10/30 07:00:12;;;;;;;3.85;1.50;;;;;;;12.36;49.50;99719.19;4996170;28;20046;-82
2023/10/30 07:02:42;;;;;;;4.88;1.27;;;;;;;12.37;48.97;99712.69;5003879;28;20050;-82
2023/10/30 07:05:10;;;;;;;6.30;1.70;;;;;;;12.33;49.15;99719.53;5006747;28;20374;-82
2023/10/30 07:07:38;;;;;;;3.70;1.50;;;;;;;12.35;49.11;99722.13;4991733;28;20148;-82
2023/10/30 07:10:07;;;;;;;2.75;1.50;;;;;;;12.37;49.30;99723.66;4990057;28;20117;-81
2023/10/30 07:12:35;;;;;;;3.95;1.35;;;;;;;12.33;49.26;99725.03;4992152;28;20046;-82
2023/10/30 07:15:04;;;;;;;5.15;1.63;;;;;;;12.35;49.32;99724.84;5007305;28;20439;-82
2023/10/30 07:17:32;;;;;;;4.82;1.48;;;;;;;12.33;49.60;99726.91;5006635;28;20156;-83
2023/10/30 07:20:02;;;;;;;4.57;1.50;;;;;;;12.34;49.00;99734.97;4986281;28;20047;-83
2023/10/30 07:22:30;;;;;;;4.32;1.63;;;;;;;12.32;49.29;99727.94;4982924;28;20056;-84
2023/10/30 07:24:59;;;;;;;3.10;1.48;;;;;;;12.31;49.46;99735.31;4979416;28;20052;-84
2023/10/30 07:27:27;;;;;;;4.80;1.42;;;;;;;12.32;49.39;99725.19;4979597;28;20366;-85
2023/10/30 07:29:55;;;;;;;4.30;1.38;;;;;;;12.30;49.52;99722.63;5010120;28;20061;-85
2023/10/30 07:32:23;;;;;;;5.30;1.60;;;;;;;12.29;49.47;99720.06;5015868;28;20054;-85
2023/10/30 07:34:51;;;;;;;3.65;1.50;;;;;;;12.31;49.76;99717.97;5011591;28;20050;-84
2023/10/30 07:37:21;;;;;;;4.57;1.60;;;;;;;12.32;49.89;99720.56;4999320;28;20088;-84
2023/10/30 07:39:49;;;;;;;4.70;1.73;;;;;;;12.31;49.81;99728.97;4996417;28;20083;-85
2023/10/30 07:42:17;;;;;;;3.17;1.33;;;;;;;12.31;49.66;99717.97;4996730;28;20066;-85
2023/10/30 07:44:45;;;;;;;5.38;1.90;;;;;;;12.32;50.00;99730.69;4995061;28;20054;-83
2023/10/30 07:47:13;;;;;;;5.35;1.60;;;;;;;12.31;50.15;99732.56;4998231;28;20137;-83
2023/10/30 07:49:41;;;;;;;4.47;1.58;;;;;;;12.32;50.02;99725.19;4979895;28;20302;-82
2023/10/30 07:52:09;;;;;;;4.55;1.75;;;;;;;12.33;50.14;99726.91;5003547;28;20062;-82
2023/10/30 07:54:39;;;;;;;5.65;1.40;;;;;;;12.35;50.25;99720.22;4984644;28;20109;-82
2023/10/30 07:57:08;;;;;;;3.20;1.40;;;;;;;12.35;50.29;99705.66;4979219;28;20050;-85
2023/10/30 07:59:36;;;;;;;4.07;1.50;;;;;;;12.36;50.30;99713.72;4998334;28;20054;-83
2023/10/30 08:02:06;;;;;;;2.95;1.60;;;;;;;12.38;50.32;99719.00;4994771;28;20061;-85
2023/10/30 08:04:35;;;;;;;5.40;1.77;;;;;;;12.38;50.51;99716.25;4978843;28;20046;-82
2023/10/30 08:07:03;;;;;;;4.30;1.58;;;;;;;12.40;50.03;99725.19;4979456;28;20057;-82
2023/10/30 08:09:31;;;;;;;4.20;1.70;;;;;;;12.40;50.33;99723.28;4993509;28;20054;-83
2023/10/30 08:12:06;;;;;;;4.82;1.70;;;;;;;12.43;50.35;99714.72;4979685;28;20374;-84
2023/10/30 08:14:49;;;;;;;6.22;1.70;;;;;;;12.44;50.41;99705.47;4967436;28;20441;-84
2023/10/30 08:17:17;;;;;;;5.18;2.10;;;;;;;12.48;50.47;99715.03;4982040;28;20046;-82
2023/10/30 08:19:45;;;;;;;4.82;1.90;;;;;;;12.49;50.54;99710.41;4998422;28;20441;-83
2023/10/30 08:22:13;;;;;;;2.90;1.60;;;;;;;12.54;50.47;99727.25;4984097;28;20066;-83
2023/10/30 08:24:41;;;;;;;4.05;1.48;;;;;;;12.58;50.38;99724.97;5000726;28;20071;-84
2023/10/30 08:27:11;;;;;;;3.70;1.38;;;;;;;12.61;50.75;99725.50;4983687;28;20065;-82
2023/10/30 08:29:39;;;;;;;3.33;1.60;;;;;;;12.63;50.81;99726.19;4982305;28;20046;-82
2023/10/30 08:32:07;;;;;;;3.72;1.90;;;;;;;12.66;50.70;99730.47;4998963;28;20112;-82
2023/10/30 08:34:35;;;;;;;3.88;1.40;;;;;;;12.69;50.32;99724.66;4981379;28;20401;-83
2023/10/30 08:37:04;;;;;;;4.53;1.80;;;;;;;12.72;50.70;99730.63;5000233;28;20059;-84
2023/10/30 08:39:32;;;;;;;4.43;1.92;;;;;;;12.77;50.83;99724.63;4983812;28;20043;-85
2023/10/30 08:42:00;;;;;;;3.85;1.73;;;;;;;12.79;50.51;99734.38;5002718;28;20134;-84
2023/10/30 08:44:31;;;;;;;4.78;1.83;;;;;;;12.83;50.62;99727.53;4986962;28;20407;-84
2023/10/30 08:46:59;;;;;;;5.22;1.85;;;;;;;12.83;50.60;99721.16;5003010;28;20058;-83
2023/10/30 08:49:34;;;;;;;3.72;1.70;;;;;;;12.90;50.45;99732.28;5002835;28;20050;-84
2023/10/30 08:52:06;;;;;;;4.15;1.35;;;;;;;12.92;50.67;99736.59;4984873;28;20522;-83
2023/10/30 08:54:34;;;;;;;3.63;1.65;;;;;;;12.95;50.45;99724.41;5001827;28;20097;-83
2023/10/30 08:57:02;;;;;;;4.63;1.63;;;;;;;13.00;50.06;99732.97;4985693;28;20698;-85
2023/10/30 08:59:45;;;;;;;3.97;1.60;;;;;;;13.02;50.33;99729.00;4985068;28;20054;-84
2023/10/30 09:02:14;;;;;;;3.13;1.60;;;;;;;13.07;50.64;99726.56;4987234;28;20143;-85
2023/10/30 09:04:42;;;;;;;4.63;1.70;;;;;;;13.09;49.96;99723.66;5007316;28;20046;-86
2023/10/30 09:07:11;;;;;;;4.25;1.60;;;;;;;13.11;50.35;99716.09;5002167;28;20034;-82
2023/10/30 09:09:41;;;;;;;4.15;1.45;;;;;;;13.14;49.94;99715.72;5018270;28;20370;-82
2023/10/30 09:12:10;;;;;;;3.13;1.30;;;;;;;13.16;49.82;99724.66;4998738;28;20074;-84
2023/10/30 09:14:38;;;;;;;3.22;1.38;;;;;;;13.19;50.00;99727.91;5006027;28;20568;-83
2023/10/30 09:17:08;;;;;;;5.60;1.52;;;;;;;13.24;50.00;99725.47;4987460;28;20069;-83
2023/10/30 09:19:36;;;;;;;2.78;1.38;;;;;;;13.25;49.91;99729.94;5002589;28;20172;-84
2023/10/30 09:22:05;;;;;;;2.50;1.20;;;;;;;13.28;50.10;99725.13;4987399;28;20177;-84
2023/10/30 09:24:36;;;;;;;3.08;1.35;;;;;;;13.31;49.44;99725.59;5003168;28;20571;-84
2023/10/30 09:27:04;;;;;;;3.17;1.30;;;;;;;13.33;49.95;99722.69;4984671;28;20323;-84
2023/10/30 09:29:32;;;;;;;4.40;1.50;;;;;;;13.35;49.74;99721.47;4985806;28;20571;-84
2023/10/30 09:32:03;;;;;;;4.05;1.83;;;;;;;13.37;49.98;99722.13;5003289;28;20058;-84
2023/10/30 09:34:34;;;;;;;3.40;1.52;;;;;;;13.40;50.02;99719.03;4988134;28;20061;-83
2023/10/30 09:37:03;;;;;;;2.47;1.40;;;;;;;13.41;49.98;99717.13;5006600;28;20057;-83
2023/10/30 09:39:30;;;;;;;4.05;1.60;;;;;;;13.43;49.38;99706.81;5009721;28;20051;-83
2023/10/30 09:42:01;;;;;;;2.92;1.50;;;;;;;13.46;49.73;99711.94;4991482;28;20050;-83
2023/10/30 09:44:30;;;;;;;4.13;1.30;;;;;;;13.47;49.93;99703.53;5004916;28;20673;-85
2023/10/30 09:47:00;;;;;;;2.80;1.38;;;;;;;13.48;49.42;99710.72;5003972;28;20126;-84
2023/10/30 09:49:29;;;;;;;4.30;1.73;;;;;;;13.49;49.65;99701.44;5001406;28;20046;-84
2023/10/30 09:52:00;;;;;;;3.28;1.50;;;;;;;13.54;49.50;99706.41;4987140;28;20056;-84
2023/10/30 09:54:31;;;;;;;4.32;1.65;;;;;;;13.56;49.96;99701.56;4986656;28;20064;-84
2023/10/30 10:00:47;;;;;;;3.08;1.67;;;;;;;13.58;49.65;99708.66;4984889;28;20059;-82
2023/10/30 10:03:16;;;;;;;2.83;1.35;;;;;;;13.61;49.58;99713.75;5011808;28;20939;-82
2023/10/30 10:05:54;;;;;;;2.67;1.42;;;;;;;13.70;49.20;99709.06;4999614;28;20089;-82
2023/10/30 10:08:25;;;;;;;3.20;1.50;;;;;;;13.73;49.90;99714.22;5008271;28;20118;-82
2023/10/30 10:10:59;;;;;;;2.55;1.10;;;;;;;13.78;48.91;99714.50;5006798;28;20097;-82
2023/10/30 10:13:29;;;;;;;3.45;1.17;;;;;;;13.80;49.42;99701.44;5004958;28;20058;-83
2023/10/30 10:15:58;;;;;;;3.67;1.33;;;;;;;13.82;49.76;99688.38;5002308;28;20657;-82
2023/10/30 10:18:28;;;;;;;2.15;1.10;;;;;;;13.87;49.35;99696.03;4987477;28;20050;-82
2023/10/30 10:20:58;;;;;;;2.25;1.00;;;;;;;13.91;49.58;99690.00;5008274;28;20073;-82
2023/10/30 10:23:31;;;;;;;2.97;1.10;;;;;;;13.95;49.06;99693.22;5004064;28;20065;-82
2023/10/30 10:26:03;;;;;;;2.58;1.10;;;;;;;13.98;49.01;99702.00;4996895;28;20057;-82
2023/10/30 10:28:32;;;;;;;3.63;1.30;;;;;;;14.02;49.13;99702.50;4983823;28;20100;-83
2023/10/30 10:31:00;;;;;;;3.33;1.20;;;;;;;14.04;49.05;99694.03;4998727;28;20056;-82
2023/10/30 10:33:29;;;;;;;2.20;1.10;;;;;;;14.07;48.70;99693.66;5001828;28;20082;-82
2023/10/30 10:36:00;;;;;;;2.88;1.10;;;;;;;14.09;48.98;99689.69;5001561;28;20042;-82
2023/10/30 10:38:31;;;;;;;3.13;1.08;;;;;;;14.12;48.53;99686.56;5005572;28;20137;-84
2023/10/30 10:41:00;;;;;;;2.30;1.10;;;;;;;14.16;48.59;99687.06;5009102;28;20046;-83
2023/10/30 10:43:29;;;;;;;3.20;1.10;;;;;;;14.16;48.63;99671.41;4997815;28;20057;-81
2023/10/30 10:45:59;;;;;;;2.50;1.20;;;;;;;14.18;48.50;99669.31;5017064;28;20089;-83
2023/10/30 10:48:28;;;;;;;2.50;1.05;;;;;;;14.21;48.46;99662.56;5018742;28;20089;-83
2023/10/30 10:50:57;;;;;;;1.85;1.00;;;;;;;14.22;48.37;99658.78;4988252;28;20061;-83
2023/10/30 10:53:28;;;;;;;3.95;0.98;;;;;;;14.26;47.97;99651.88;5002497;28;20078;-84
2023/10/30 10:56:04;;;;;;;2.45;1.10;;;;;;;14.30;47.72;99658.69;4998348;28;20048;-83
2023/10/30 10:58:42;;;;;;;2.42;0.98;;;;;;;14.31;47.47;99655.75;4986013;28;20062;-84
2023/10/30 11:01:17;;;;;;;1.85;0.93;;;;;;;14.34;47.95;99663.66;5000046;28;20097;-84
2023/10/30 11:03:48;;;;;;;1.88;0.90;;;;;;;14.35;48.38;99653.50;5004804;28;20085;-83
2023/10/30 11:06:18;;;;;;;2.13;0.98;;;;;;;14.39;47.79;99644.66;5004337;28;20057;-83
2023/10/30 11:08:54;;;;;;;2.25;0.80;;;;;;;14.46;47.76;99643.91;5004691;28;20045;-84
2023/10/30 11:11:30;;;;;;;2.05;1.02;;;;;;;14.46;47.79;99644.75;4981804;28;20713;-85
2023/10/30 11:14:15;;;;;;;2.05;0.90;;;;;;;14.49;46.98;99643.56;4985066;28;20057;-84
2023/10/30 11:16:48;;;;;;;1.73;1.00;;;;;;;14.50;47.60;99635.13;5005207;28;20086;-83
2023/10/30 11:19:19;;;;;;;;;;;;;;;14.25;48.07;99639.16;5001609;28;20055;-83
2023/10/30 11:21:49;;;;;;;2.28;0.82;;;;;;;14.50;47.95;99624.13;5002552;28;19926;-83
2023/10/30 11:24:35;;;;;;;3.15;1.10;;;;;;;14.56;47.06;99623.34;5000932;28;20047;-83
2023/10/30 11:30:03;;;;;;;2.90;1.20;;;;;;;14.57;47.51;99618.69;4977158;28;20966;-74
2023/10/30 11:32:32;;;;;;;1.95;1.10;;;;;;;14.56;47.57;99609.56;4978718;28;20046;-74
2023/10/30 11:35:00;;;;;;;2.20;0.95;;;;;;;14.57;47.50;99604.94;4976655;28;20082;-74
2023/10/30 11:37:32;;;;;;;3.30;1.23;;;;;;;14.59;47.65;99594.59;4972604;28;20455;-74
2023/10/30 11:40:03;;;;;;;2.15;1.00;;;;;;;14.54;47.77;99591.53;4955494;28;20050;-75
2023/10/30 11:42:39;;;;;;;2.03;0.90;;;;;;;14.58;47.29;99587.38;4958677;28;20046;-73
2023/10/30 11:45:24;;;;;;;2.25;1.10;;;;;;;14.58;47.36;99599.25;4953278;28;20063;-74
2023/10/30 11:48:05;;;;;;;3.13;1.30;;;;;;;14.60;47.57;99590.78;4955404;28;20411;-73
2023/10/30 11:50:35;;;;;;;1.85;1.10;;;;;;;14.58;47.74;99581.88;4948208;28;20797;-73